<?xml version="1.0" encoding="UTF-8" standalone="no" ?>
<gpx xmlns="http://www.topografix.com/GPX/1/1" xmlns:xsi="http://www.w3.org/2001/XMLSchema-instance" xsi:schemaLocation="http://www.topografix.com/GPX/1/1 http://www.topografix.com/GPX/1/1/gpx.xsd" version="1.1" creator="VisuGPX - https://www.visugpx.com">
  <metadata>
    <name>Montée sèche du Funiculaire Pal de Fer</name>
    <desc><![CDATA[1ère édition 29 mars 2015]]></desc>
  </metadata>
  <trk>
    <name><![CDATA[Montée sèche du funiculaire - 1ère édition]]></name>
    <trkseg>
      <trkpt lat="45.29976" lon="5.89821">
        <ele>265.4</ele>
        <time>2015-03-29T08:30:19Z</time>
      </trkpt>
      <trkpt lat="45.29988" lon="5.89816">
        <ele>263.8</ele>
        <time>2015-03-29T08:30:23Z</time>
      </trkpt>
      <trkpt lat="45.29997" lon="5.89811">
        <ele>264.6</ele>
        <time>2015-03-29T08:30:25Z</time>
      </trkpt>
      <trkpt lat="45.30007" lon="5.89804">
        <ele>266.6</ele>
        <time>2015-03-29T08:30:28Z</time>
      </trkpt>
      <trkpt lat="45.30017" lon="5.89798">
        <ele>268.6</ele>
        <time>2015-03-29T08:30:32Z</time>
      </trkpt>
      <trkpt lat="45.30025" lon="5.89793">
        <ele>271.2</ele>
        <time>2015-03-29T08:30:36Z</time>
      </trkpt>
      <trkpt lat="45.30032" lon="5.89783">
        <ele>273.2</ele>
        <time>2015-03-29T08:30:39Z</time>
      </trkpt>
      <trkpt lat="45.3004" lon="5.89776">
        <ele>274</ele>
        <time>2015-03-29T08:30:42Z</time>
      </trkpt>
      <trkpt lat="45.30048" lon="5.8977">
        <ele>276.2</ele>
        <time>2015-03-29T08:30:45Z</time>
      </trkpt>
      <trkpt lat="45.30055" lon="5.89763">
        <ele>277.6</ele>
        <time>2015-03-29T08:30:48Z</time>
      </trkpt>
      <trkpt lat="45.3006" lon="5.89752">
        <ele>279.8</ele>
        <time>2015-03-29T08:30:52Z</time>
      </trkpt>
      <trkpt lat="45.30062" lon="5.8974">
        <ele>281.6</ele>
        <time>2015-03-29T08:30:56Z</time>
      </trkpt>
      <trkpt lat="45.30067" lon="5.89726">
        <ele>283.4</ele>
        <time>2015-03-29T08:31:01Z</time>
      </trkpt>
      <trkpt lat="45.30071" lon="5.89712">
        <ele>286.4</ele>
        <time>2015-03-29T08:31:07Z</time>
      </trkpt>
      <trkpt lat="45.30075" lon="5.89697">
        <ele>291.6</ele>
        <time>2015-03-29T08:31:14Z</time>
      </trkpt>
      <trkpt lat="45.30075" lon="5.8968">
        <ele>294</ele>
        <time>2015-03-29T08:31:21Z</time>
      </trkpt>
      <trkpt lat="45.30074" lon="5.89659">
        <ele>299.6</ele>
        <time>2015-03-29T08:31:29Z</time>
      </trkpt>
      <trkpt lat="45.30079" lon="5.89645">
        <ele>304</ele>
        <time>2015-03-29T08:31:37Z</time>
      </trkpt>
      <trkpt lat="45.30084" lon="5.89631">
        <ele>306.6</ele>
        <time>2015-03-29T08:31:45Z</time>
      </trkpt>
      <trkpt lat="45.30087" lon="5.89618">
        <ele>310.2</ele>
        <time>2015-03-29T08:31:52Z</time>
      </trkpt>
      <trkpt lat="45.30076" lon="5.89612">
        <ele>311.6</ele>
        <time>2015-03-29T08:31:57Z</time>
      </trkpt>
      <trkpt lat="45.30066" lon="5.89602">
        <ele>313</ele>
        <time>2015-03-29T08:32:02Z</time>
      </trkpt>
      <trkpt lat="45.30062" lon="5.89589">
        <ele>316.2</ele>
        <time>2015-03-29T08:32:09Z</time>
      </trkpt>
      <trkpt lat="45.30058" lon="5.89575">
        <ele>320.2</ele>
        <time>2015-03-29T08:32:17Z</time>
      </trkpt>
      <trkpt lat="45.30059" lon="5.89561">
        <ele>323.8</ele>
        <time>2015-03-29T08:32:25Z</time>
      </trkpt>
      <trkpt lat="45.30059" lon="5.89546">
        <ele>328.2</ele>
        <time>2015-03-29T08:32:33Z</time>
      </trkpt>
      <trkpt lat="45.30055" lon="5.8953">
        <ele>332.4</ele>
        <time>2015-03-29T08:32:43Z</time>
      </trkpt>
      <trkpt lat="45.3005" lon="5.89516">
        <ele>337.2</ele>
        <time>2015-03-29T08:32:52Z</time>
      </trkpt>
      <trkpt lat="45.3004" lon="5.89505">
        <ele>341.6</ele>
        <time>2015-03-29T08:33:00Z</time>
      </trkpt>
      <trkpt lat="45.30033" lon="5.89493">
        <ele>345.2</ele>
        <time>2015-03-29T08:33:06Z</time>
      </trkpt>
      <trkpt lat="45.30025" lon="5.89481">
        <ele>348.8</ele>
        <time>2015-03-29T08:33:12Z</time>
      </trkpt>
      <trkpt lat="45.30019" lon="5.89467">
        <ele>352.6</ele>
        <time>2015-03-29T08:33:18Z</time>
      </trkpt>
      <trkpt lat="45.30015" lon="5.89456">
        <ele>356</ele>
        <time>2015-03-29T08:33:24Z</time>
      </trkpt>
      <trkpt lat="45.30007" lon="5.89447">
        <ele>358.6</ele>
        <time>2015-03-29T08:33:31Z</time>
      </trkpt>
      <trkpt lat="45.30013" lon="5.89433">
        <ele>361.2</ele>
        <time>2015-03-29T08:33:38Z</time>
      </trkpt>
      <trkpt lat="45.3002" lon="5.89421">
        <ele>363.8</ele>
        <time>2015-03-29T08:33:44Z</time>
      </trkpt>
      <trkpt lat="45.30026" lon="5.89408">
        <ele>366</ele>
        <time>2015-03-29T08:33:50Z</time>
      </trkpt>
      <trkpt lat="45.30031" lon="5.89396">
        <ele>369.4</ele>
        <time>2015-03-29T08:33:56Z</time>
      </trkpt>
      <trkpt lat="45.3004" lon="5.89383">
        <ele>372.8</ele>
        <time>2015-03-29T08:34:03Z</time>
      </trkpt>
      <trkpt lat="45.30047" lon="5.8937">
        <ele>375.6</ele>
        <time>2015-03-29T08:34:09Z</time>
      </trkpt>
      <trkpt lat="45.30055" lon="5.89362">
        <ele>378.4</ele>
        <time>2015-03-29T08:34:15Z</time>
      </trkpt>
      <trkpt lat="45.30064" lon="5.89361">
        <ele>381.8</ele>
        <time>2015-03-29T08:34:21Z</time>
      </trkpt>
      <trkpt lat="45.30074" lon="5.89359">
        <ele>385.2</ele>
        <time>2015-03-29T08:34:28Z</time>
      </trkpt>
      <trkpt lat="45.30084" lon="5.89363">
        <ele>386.8</ele>
        <time>2015-03-29T08:34:33Z</time>
      </trkpt>
      <trkpt lat="45.30093" lon="5.89366">
        <ele>390.8</ele>
        <time>2015-03-29T08:34:39Z</time>
      </trkpt>
      <trkpt lat="45.30102" lon="5.89366">
        <ele>394.2</ele>
        <time>2015-03-29T08:34:46Z</time>
      </trkpt>
      <trkpt lat="45.30113" lon="5.89365">
        <ele>396.6</ele>
        <time>2015-03-29T08:34:52Z</time>
      </trkpt>
      <trkpt lat="45.30126" lon="5.89364">
        <ele>399.4</ele>
        <time>2015-03-29T08:34:58Z</time>
      </trkpt>
      <trkpt lat="45.30137" lon="5.89361">
        <ele>402.8</ele>
        <time>2015-03-29T08:35:04Z</time>
      </trkpt>
      <trkpt lat="45.30149" lon="5.89362">
        <ele>405.8</ele>
        <time>2015-03-29T08:35:10Z</time>
      </trkpt>
      <trkpt lat="45.3016" lon="5.89367">
        <ele>408.8</ele>
        <time>2015-03-29T08:35:16Z</time>
      </trkpt>
      <trkpt lat="45.30171" lon="5.8937">
        <ele>411.4</ele>
        <time>2015-03-29T08:35:22Z</time>
      </trkpt>
      <trkpt lat="45.30181" lon="5.89372">
        <ele>414</ele>
        <time>2015-03-29T08:35:27Z</time>
      </trkpt>
      <trkpt lat="45.30191" lon="5.89369">
        <ele>417.4</ele>
        <time>2015-03-29T08:35:34Z</time>
      </trkpt>
      <trkpt lat="45.30201" lon="5.8937">
        <ele>420.4</ele>
        <time>2015-03-29T08:35:41Z</time>
      </trkpt>
      <trkpt lat="45.30212" lon="5.89372">
        <ele>423.2</ele>
        <time>2015-03-29T08:35:47Z</time>
      </trkpt>
      <trkpt lat="45.30223" lon="5.89374">
        <ele>426.4</ele>
        <time>2015-03-29T08:35:54Z</time>
      </trkpt>
      <trkpt lat="45.30235" lon="5.89374">
        <ele>429.8</ele>
        <time>2015-03-29T08:36:01Z</time>
      </trkpt>
      <trkpt lat="45.30247" lon="5.89368">
        <ele>434</ele>
        <time>2015-03-29T08:36:09Z</time>
      </trkpt>
      <trkpt lat="45.30256" lon="5.89362">
        <ele>437.2</ele>
        <time>2015-03-29T08:36:15Z</time>
      </trkpt>
      <trkpt lat="45.30266" lon="5.89353">
        <ele>441.2</ele>
        <time>2015-03-29T08:36:23Z</time>
      </trkpt>
      <trkpt lat="45.30274" lon="5.89344">
        <ele>443.4</ele>
        <time>2015-03-29T08:36:29Z</time>
      </trkpt>
      <trkpt lat="45.30283" lon="5.89339">
        <ele>446.8</ele>
        <time>2015-03-29T08:36:36Z</time>
      </trkpt>
      <trkpt lat="45.3029" lon="5.89332">
        <ele>451.2</ele>
        <time>2015-03-29T08:36:44Z</time>
      </trkpt>
      <trkpt lat="45.30297" lon="5.89325">
        <ele>456.4</ele>
        <time>2015-03-29T08:36:53Z</time>
      </trkpt>
      <trkpt lat="45.30303" lon="5.89315">
        <ele>461.2</ele>
        <time>2015-03-29T08:37:03Z</time>
      </trkpt>
      <trkpt lat="45.30308" lon="5.89302">
        <ele>463.8</ele>
        <time>2015-03-29T08:37:10Z</time>
      </trkpt>
      <trkpt lat="45.30315" lon="5.89289">
        <ele>467</ele>
        <time>2015-03-29T08:37:18Z</time>
      </trkpt>
      <trkpt lat="45.30322" lon="5.89277">
        <ele>470.2</ele>
        <time>2015-03-29T08:37:26Z</time>
      </trkpt>
      <trkpt lat="45.30328" lon="5.89263">
        <ele>472.4</ele>
        <time>2015-03-29T08:37:32Z</time>
      </trkpt>
      <trkpt lat="45.30332" lon="5.89251">
        <ele>475.4</ele>
        <time>2015-03-29T08:37:38Z</time>
      </trkpt>
      <trkpt lat="45.30338" lon="5.89237">
        <ele>479</ele>
        <time>2015-03-29T08:37:45Z</time>
      </trkpt>
      <trkpt lat="45.30343" lon="5.89223">
        <ele>482.8</ele>
        <time>2015-03-29T08:37:52Z</time>
      </trkpt>
      <trkpt lat="45.30348" lon="5.8921">
        <ele>487</ele>
        <time>2015-03-29T08:38:01Z</time>
      </trkpt>
      <trkpt lat="45.30352" lon="5.89196">
        <ele>491.4</ele>
        <time>2015-03-29T08:38:10Z</time>
      </trkpt>
      <trkpt lat="45.30354" lon="5.89181">
        <ele>494.6</ele>
        <time>2015-03-29T08:38:17Z</time>
      </trkpt>
      <trkpt lat="45.30363" lon="5.8917">
        <ele>497</ele>
        <time>2015-03-29T08:38:24Z</time>
      </trkpt>
      <trkpt lat="45.30372" lon="5.89159">
        <ele>500</ele>
        <time>2015-03-29T08:38:30Z</time>
      </trkpt>
      <trkpt lat="45.30382" lon="5.89148">
        <ele>502.8</ele>
        <time>2015-03-29T08:38:37Z</time>
      </trkpt>
      <trkpt lat="45.30396" lon="5.89152">
        <ele>503.8</ele>
        <time>2015-03-29T08:38:49Z</time>
      </trkpt>
      <trkpt lat="45.30405" lon="5.89161">
        <ele>505.2</ele>
        <time>2015-03-29T08:39:00Z</time>
      </trkpt>
      <trkpt lat="45.30411" lon="5.89168">
        <ele>509.6</ele>
        <time>2015-03-29T08:39:09Z</time>
      </trkpt>
      <trkpt lat="45.30424" lon="5.89176">
        <ele>514.4</ele>
        <time>2015-03-29T08:39:18Z</time>
      </trkpt>
      <trkpt lat="45.30435" lon="5.89185">
        <ele>518.8</ele>
        <time>2015-03-29T08:39:27Z</time>
      </trkpt>
      <trkpt lat="45.30444" lon="5.89197">
        <ele>522.4</ele>
        <time>2015-03-29T08:39:35Z</time>
      </trkpt>
      <trkpt lat="45.30454" lon="5.89203">
        <ele>524.2</ele>
        <time>2015-03-29T08:39:40Z</time>
      </trkpt>
      <trkpt lat="45.30461" lon="5.89217">
        <ele>525.8</ele>
        <time>2015-03-29T08:39:46Z</time>
      </trkpt>
      <trkpt lat="45.30468" lon="5.89232">
        <ele>530</ele>
        <time>2015-03-29T08:39:54Z</time>
      </trkpt>
      <trkpt lat="45.30481" lon="5.89239">
        <ele>534</ele>
        <time>2015-03-29T08:40:02Z</time>
      </trkpt>
      <trkpt lat="45.30491" lon="5.89247">
        <ele>538.8</ele>
        <time>2015-03-29T08:40:10Z</time>
      </trkpt>
      <trkpt lat="45.305" lon="5.89251">
        <ele>543.6</ele>
        <time>2015-03-29T08:40:16Z</time>
      </trkpt>
      <trkpt lat="45.30508" lon="5.89254">
        <ele>547.2</ele>
        <time>2015-03-29T08:40:23Z</time>
      </trkpt>
      <trkpt lat="45.30519" lon="5.89259">
        <ele>550.4</ele>
        <time>2015-03-29T08:40:29Z</time>
      </trkpt>
      <trkpt lat="45.30519" lon="5.89276">
        <ele>550.6</ele>
        <time>2015-03-29T08:40:34Z</time>
      </trkpt>
      <trkpt lat="45.30526" lon="5.89291">
        <ele>553.4</ele>
        <time>2015-03-29T08:40:41Z</time>
      </trkpt>
      <trkpt lat="45.3053" lon="5.89304">
        <ele>558</ele>
        <time>2015-03-29T08:40:51Z</time>
      </trkpt>
      <trkpt lat="45.30536" lon="5.89317">
        <ele>561.6</ele>
        <time>2015-03-29T08:41:00Z</time>
      </trkpt>
      <trkpt lat="45.30541" lon="5.89329">
        <ele>564.8</ele>
        <time>2015-03-29T08:41:07Z</time>
      </trkpt>
      <trkpt lat="45.30543" lon="5.89348">
        <ele>570.4</ele>
        <time>2015-03-29T08:41:18Z</time>
      </trkpt>
      <trkpt lat="45.30549" lon="5.8936">
        <ele>574.6</ele>
        <time>2015-03-29T08:41:27Z</time>
      </trkpt>
      <trkpt lat="45.30553" lon="5.89373">
        <ele>579.2</ele>
        <time>2015-03-29T08:41:36Z</time>
      </trkpt>
      <trkpt lat="45.30558" lon="5.89385">
        <ele>583</ele>
        <time>2015-03-29T08:41:46Z</time>
      </trkpt>
      <trkpt lat="45.30567" lon="5.89395">
        <ele>587.2</ele>
        <time>2015-03-29T08:41:55Z</time>
      </trkpt>
      <trkpt lat="45.30575" lon="5.89403">
        <ele>590.4</ele>
        <time>2015-03-29T08:42:03Z</time>
      </trkpt>
      <trkpt lat="45.30581" lon="5.89412">
        <ele>594.4</ele>
        <time>2015-03-29T08:42:13Z</time>
      </trkpt>
      <trkpt lat="45.3058" lon="5.89431">
        <ele>599.6</ele>
        <time>2015-03-29T08:42:24Z</time>
      </trkpt>
      <trkpt lat="45.3059" lon="5.89438">
        <ele>603.2</ele>
        <time>2015-03-29T08:42:33Z</time>
      </trkpt>
      <trkpt lat="45.30595" lon="5.89428">
        <ele>606.4</ele>
        <time>2015-03-29T08:42:41Z</time>
      </trkpt>
      <trkpt lat="45.30603" lon="5.89422">
        <ele>609</ele>
        <time>2015-03-29T08:42:48Z</time>
      </trkpt>
      <trkpt lat="45.3061" lon="5.89418">
        <ele>612.8</ele>
        <time>2015-03-29T08:42:56Z</time>
      </trkpt>
      <trkpt lat="45.30608" lon="5.89404">
        <ele>617</ele>
        <time>2015-03-29T08:43:06Z</time>
      </trkpt>
      <trkpt lat="45.30601" lon="5.89393">
        <ele>618.6</ele>
        <time>2015-03-29T08:43:11Z</time>
      </trkpt>
      <trkpt lat="45.30607" lon="5.89377">
        <ele>621</ele>
        <time>2015-03-29T08:43:17Z</time>
      </trkpt>
      <trkpt lat="45.30611" lon="5.89362">
        <ele>624.8</ele>
        <time>2015-03-29T08:43:25Z</time>
      </trkpt>
      <trkpt lat="45.30615" lon="5.89353">
        <ele>628.8</ele>
        <time>2015-03-29T08:43:33Z</time>
      </trkpt>
      <trkpt lat="45.3062" lon="5.89361">
        <ele>632.6</ele>
        <time>2015-03-29T08:43:42Z</time>
      </trkpt>
      <trkpt lat="45.30629" lon="5.8935">
        <ele>637.6</ele>
        <time>2015-03-29T08:43:53Z</time>
      </trkpt>
      <trkpt lat="45.30629" lon="5.89335">
        <ele>642</ele>
        <time>2015-03-29T08:44:03Z</time>
      </trkpt>
      <trkpt lat="45.30634" lon="5.89331">
        <ele>647</ele>
        <time>2015-03-29T08:44:15Z</time>
      </trkpt>
      <trkpt lat="45.30642" lon="5.89338">
        <ele>651.4</ele>
        <time>2015-03-29T08:44:23Z</time>
      </trkpt>
      <trkpt lat="45.30652" lon="5.89352">
        <ele>655</ele>
        <time>2015-03-29T08:44:32Z</time>
      </trkpt>
      <trkpt lat="45.3066" lon="5.89348">
        <ele>658.2</ele>
        <time>2015-03-29T08:44:40Z</time>
      </trkpt>
      <trkpt lat="45.30665" lon="5.89342">
        <ele>662.2</ele>
        <time>2015-03-29T08:44:48Z</time>
      </trkpt>
      <trkpt lat="45.30671" lon="5.89352">
        <ele>665.4</ele>
        <time>2015-03-29T08:44:56Z</time>
      </trkpt>
      <trkpt lat="45.30679" lon="5.89348">
        <ele>668.6</ele>
        <time>2015-03-29T08:45:04Z</time>
      </trkpt>
      <trkpt lat="45.30682" lon="5.89335">
        <ele>671.6</ele>
        <time>2015-03-29T08:45:12Z</time>
      </trkpt>
      <trkpt lat="45.30688" lon="5.89335">
        <ele>675.2</ele>
        <time>2015-03-29T08:45:20Z</time>
      </trkpt>
      <trkpt lat="45.30698" lon="5.89342">
        <ele>679.8</ele>
        <time>2015-03-29T08:45:29Z</time>
      </trkpt>
      <trkpt lat="45.30706" lon="5.89351">
        <ele>681.8</ele>
        <time>2015-03-29T08:45:35Z</time>
      </trkpt>
      <trkpt lat="45.30713" lon="5.89358">
        <ele>684.4</ele>
        <time>2015-03-29T08:45:41Z</time>
      </trkpt>
      <trkpt lat="45.30709" lon="5.89343">
        <ele>689.2</ele>
        <time>2015-03-29T08:45:51Z</time>
      </trkpt>
      <trkpt lat="45.30711" lon="5.8933">
        <ele>693.2</ele>
        <time>2015-03-29T08:46:00Z</time>
      </trkpt>
      <trkpt lat="45.30713" lon="5.89315">
        <ele>696.6</ele>
        <time>2015-03-29T08:46:08Z</time>
      </trkpt>
      <trkpt lat="45.30714" lon="5.893">
        <ele>700</ele>
        <time>2015-03-29T08:46:17Z</time>
      </trkpt>
      <trkpt lat="45.30717" lon="5.89286">
        <ele>703.4</ele>
        <time>2015-03-29T08:46:24Z</time>
      </trkpt>
      <trkpt lat="45.30711" lon="5.89266">
        <ele>706.2</ele>
        <time>2015-03-29T08:46:31Z</time>
      </trkpt>
      <trkpt lat="45.30712" lon="5.89249">
        <ele>710.6</ele>
        <time>2015-03-29T08:46:39Z</time>
      </trkpt>
      <trkpt lat="45.30713" lon="5.89233">
        <ele>714</ele>
        <time>2015-03-29T08:46:48Z</time>
      </trkpt>
      <trkpt lat="45.30715" lon="5.89216">
        <ele>717.6</ele>
        <time>2015-03-29T08:46:56Z</time>
      </trkpt>
      <trkpt lat="45.30714" lon="5.892">
        <ele>721.6</ele>
        <time>2015-03-29T08:47:05Z</time>
      </trkpt>
      <trkpt lat="45.3071" lon="5.89177">
        <ele>726.6</ele>
        <time>2015-03-29T08:47:16Z</time>
      </trkpt>
      <trkpt lat="45.30706" lon="5.8916">
        <ele>729.6</ele>
        <time>2015-03-29T08:47:24Z</time>
      </trkpt>
      <trkpt lat="45.30703" lon="5.89143">
        <ele>734.2</ele>
        <time>2015-03-29T08:47:33Z</time>
      </trkpt>
      <trkpt lat="45.30701" lon="5.89127">
        <ele>737.6</ele>
        <time>2015-03-29T08:47:41Z</time>
      </trkpt>
      <trkpt lat="45.30697" lon="5.89112">
        <ele>742.6</ele>
        <time>2015-03-29T08:47:50Z</time>
      </trkpt>
      <trkpt lat="45.30692" lon="5.89097">
        <ele>745.8</ele>
        <time>2015-03-29T08:47:58Z</time>
      </trkpt>
      <trkpt lat="45.30695" lon="5.89087">
        <ele>750.2</ele>
        <time>2015-03-29T08:48:09Z</time>
      </trkpt>
      <trkpt lat="45.30708" lon="5.89089">
        <ele>755.2</ele>
        <time>2015-03-29T08:48:20Z</time>
      </trkpt>
      <trkpt lat="45.30719" lon="5.89093">
        <ele>758.6</ele>
        <time>2015-03-29T08:48:28Z</time>
      </trkpt>
      <trkpt lat="45.30728" lon="5.89097">
        <ele>760.8</ele>
        <time>2015-03-29T08:48:34Z</time>
      </trkpt>
      <trkpt lat="45.30738" lon="5.89105">
        <ele>764.2</ele>
        <time>2015-03-29T08:48:42Z</time>
      </trkpt>
      <trkpt lat="45.30746" lon="5.89116">
        <ele>767.6</ele>
        <time>2015-03-29T08:48:49Z</time>
      </trkpt>
      <trkpt lat="45.30753" lon="5.8913">
        <ele>772.2</ele>
        <time>2015-03-29T08:48:59Z</time>
      </trkpt>
      <trkpt lat="45.30763" lon="5.89145">
        <ele>776.6</ele>
        <time>2015-03-29T08:49:09Z</time>
      </trkpt>
      <trkpt lat="45.30767" lon="5.89167">
        <ele>779.8</ele>
        <time>2015-03-29T08:49:17Z</time>
      </trkpt>
      <trkpt lat="45.30773" lon="5.89183">
        <ele>782.8</ele>
        <time>2015-03-29T08:49:25Z</time>
      </trkpt>
      <trkpt lat="45.30783" lon="5.8919">
        <ele>785.4</ele>
        <time>2015-03-29T08:49:33Z</time>
      </trkpt>
      <trkpt lat="45.30785" lon="5.89175">
        <ele>789.6</ele>
        <time>2015-03-29T08:49:42Z</time>
      </trkpt>
      <trkpt lat="45.30784" lon="5.89162">
        <ele>792.8</ele>
        <time>2015-03-29T08:49:49Z</time>
      </trkpt>
      <trkpt lat="45.30783" lon="5.89147">
        <ele>795</ele>
        <time>2015-03-29T08:49:55Z</time>
      </trkpt>
      <trkpt lat="45.30779" lon="5.89134">
        <ele>797.6</ele>
        <time>2015-03-29T08:50:01Z</time>
      </trkpt>
      <trkpt lat="45.3078" lon="5.89116">
        <ele>798.4</ele>
        <time>2015-03-29T08:50:06Z</time>
      </trkpt>
      <trkpt lat="45.30776" lon="5.89102">
        <ele>799.8</ele>
        <time>2015-03-29T08:50:11Z</time>
      </trkpt>
      <trkpt lat="45.30773" lon="5.89087">
        <ele>801.2</ele>
        <time>2015-03-29T08:50:16Z</time>
      </trkpt>
      <trkpt lat="45.30767" lon="5.89075">
        <ele>802.6</ele>
        <time>2015-03-29T08:50:21Z</time>
      </trkpt>
      <trkpt lat="45.30766" lon="5.8906">
        <ele>805.4</ele>
        <time>2015-03-29T08:50:27Z</time>
      </trkpt>
      <trkpt lat="45.30759" lon="5.8905">
        <ele>808.2</ele>
        <time>2015-03-29T08:50:34Z</time>
      </trkpt>
      <trkpt lat="45.30754" lon="5.89036">
        <ele>811.6</ele>
        <time>2015-03-29T08:50:42Z</time>
      </trkpt>
      <trkpt lat="45.30749" lon="5.89022">
        <ele>815.2</ele>
        <time>2015-03-29T08:50:50Z</time>
      </trkpt>
      <trkpt lat="45.30744" lon="5.89011">
        <ele>817.2</ele>
        <time>2015-03-29T08:50:56Z</time>
      </trkpt>
      <trkpt lat="45.30738" lon="5.88995">
        <ele>820</ele>
        <time>2015-03-29T08:51:02Z</time>
      </trkpt>
      <trkpt lat="45.30732" lon="5.88984">
        <ele>821.8</ele>
        <time>2015-03-29T08:51:07Z</time>
      </trkpt>
      <trkpt lat="45.30726" lon="5.88973">
        <ele>823.4</ele>
        <time>2015-03-29T08:51:13Z</time>
      </trkpt>
      <trkpt lat="45.30721" lon="5.88964">
        <ele>826.8</ele>
        <time>2015-03-29T08:51:21Z</time>
      </trkpt>
      <trkpt lat="45.30719" lon="5.8895">
        <ele>830.2</ele>
        <time>2015-03-29T08:51:29Z</time>
      </trkpt>
      <trkpt lat="45.30723" lon="5.88934">
        <ele>833.6</ele>
        <time>2015-03-29T08:51:37Z</time>
      </trkpt>
      <trkpt lat="45.30731" lon="5.88923">
        <ele>840.6</ele>
        <time>2015-03-29T08:51:49Z</time>
      </trkpt>
      <trkpt lat="45.30737" lon="5.88911">
        <ele>847.2</ele>
        <time>2015-03-29T08:52:00Z</time>
      </trkpt>
      <trkpt lat="45.30738" lon="5.88919">
        <ele>855</ele>
        <time>2015-03-29T08:52:13Z</time>
      </trkpt>
      <trkpt lat="45.30739" lon="5.88937">
        <ele>856.6</ele>
        <time>2015-03-29T08:52:19Z</time>
      </trkpt>
      <trkpt lat="45.30742" lon="5.88951">
        <ele>857.2</ele>
        <time>2015-03-29T08:52:24Z</time>
      </trkpt>
      <trkpt lat="45.30746" lon="5.88964">
        <ele>859.8</ele>
        <time>2015-03-29T08:52:31Z</time>
      </trkpt>
      <trkpt lat="45.30755" lon="5.88973">
        <ele>861.2</ele>
        <time>2015-03-29T08:52:37Z</time>
      </trkpt>
      <trkpt lat="45.30763" lon="5.88987">
        <ele>863</ele>
        <time>2015-03-29T08:52:43Z</time>
      </trkpt>
      <trkpt lat="45.30768" lon="5.89002">
        <ele>864.6</ele>
        <time>2015-03-29T08:52:48Z</time>
      </trkpt>
      <trkpt lat="45.30778" lon="5.89012">
        <ele>865.6</ele>
        <time>2015-03-29T08:52:52Z</time>
      </trkpt>
      <trkpt lat="45.30788" lon="5.8902">
        <ele>867</ele>
        <time>2015-03-29T08:52:56Z</time>
      </trkpt>
      <trkpt lat="45.30794" lon="5.89031">
        <ele>869.6</ele>
        <time>2015-03-29T08:53:02Z</time>
      </trkpt>
      <trkpt lat="45.308" lon="5.89044">
        <ele>873.2</ele>
        <time>2015-03-29T08:53:09Z</time>
      </trkpt>
      <trkpt lat="45.30803" lon="5.89058">
        <ele>878.6</ele>
        <time>2015-03-29T08:53:20Z</time>
      </trkpt>
      <trkpt lat="45.30806" lon="5.89078">
        <ele>884.4</ele>
        <time>2015-03-29T08:53:32Z</time>
      </trkpt>
      <trkpt lat="45.30812" lon="5.89094">
        <ele>888.2</ele>
        <time>2015-03-29T08:53:40Z</time>
      </trkpt>
      <trkpt lat="45.30817" lon="5.8911">
        <ele>889.4</ele>
        <time>2015-03-29T08:53:46Z</time>
      </trkpt>
      <trkpt lat="45.30825" lon="5.89123">
        <ele>892.2</ele>
        <time>2015-03-29T08:53:52Z</time>
      </trkpt>
      <trkpt lat="45.30833" lon="5.89133">
        <ele>894.4</ele>
        <time>2015-03-29T08:53:57Z</time>
      </trkpt>
      <trkpt lat="45.30846" lon="5.8913">
        <ele>896</ele>
        <time>2015-03-29T08:54:02Z</time>
      </trkpt>
      <trkpt lat="45.30852" lon="5.89117">
        <ele>898.2</ele>
        <time>2015-03-29T08:54:08Z</time>
      </trkpt>
      <trkpt lat="45.30859" lon="5.89105">
        <ele>900.4</ele>
        <time>2015-03-29T08:54:13Z</time>
      </trkpt>
      <trkpt lat="45.30865" lon="5.89093">
        <ele>902.6</ele>
        <time>2015-03-29T08:54:17Z</time>
      </trkpt>
      <trkpt lat="45.30869" lon="5.8908">
        <ele>904</ele>
        <time>2015-03-29T08:54:22Z</time>
      </trkpt>
      <trkpt lat="45.30871" lon="5.89065">
        <ele>905.8</ele>
        <time>2015-03-29T08:54:27Z</time>
      </trkpt>
      <trkpt lat="45.30872" lon="5.89051">
        <ele>908</ele>
        <time>2015-03-29T08:54:32Z</time>
      </trkpt>
      <trkpt lat="45.30874" lon="5.89036">
        <ele>910.2</ele>
        <time>2015-03-29T08:54:37Z</time>
      </trkpt>
      <trkpt lat="45.30876" lon="5.89021">
        <ele>912</ele>
        <time>2015-03-29T08:54:42Z</time>
      </trkpt>
      <trkpt lat="45.30874" lon="5.89004">
        <ele>914.2</ele>
        <time>2015-03-29T08:54:47Z</time>
      </trkpt>
      <trkpt lat="45.30872" lon="5.88986">
        <ele>916.4</ele>
        <time>2015-03-29T08:54:52Z</time>
      </trkpt>
      <trkpt lat="45.3087" lon="5.88969">
        <ele>918.8</ele>
        <time>2015-03-29T08:54:57Z</time>
      </trkpt>
      <trkpt lat="45.30868" lon="5.88953">
        <ele>921.6</ele>
        <time>2015-03-29T08:55:03Z</time>
      </trkpt>
      <trkpt lat="45.30866" lon="5.88938">
        <ele>924.6</ele>
        <time>2015-03-29T08:55:09Z</time>
      </trkpt>
      <trkpt lat="45.30866" lon="5.88923">
        <ele>927.4</ele>
        <time>2015-03-29T08:55:15Z</time>
      </trkpt>
      <trkpt lat="45.30861" lon="5.88911">
        <ele>929.8</ele>
        <time>2015-03-29T08:55:20Z</time>
      </trkpt>
      <trkpt lat="45.3086" lon="5.88896">
        <ele>933.2</ele>
        <time>2015-03-29T08:55:26Z</time>
      </trkpt>
      <trkpt lat="45.30868" lon="5.88892">
        <ele>936</ele>
        <time>2015-03-29T08:55:32Z</time>
      </trkpt>
      <trkpt lat="45.30872" lon="5.8888">
        <ele>938.4</ele>
        <time>2015-03-29T08:55:38Z</time>
      </trkpt>
      <trkpt lat="45.3087" lon="5.88865">
        <ele>940</ele>
        <time>2015-03-29T08:55:44Z</time>
      </trkpt>
      <trkpt lat="45.30872" lon="5.88847">
        <ele>942.6</ele>
        <time>2015-03-29T08:55:50Z</time>
      </trkpt>
      <trkpt lat="45.30872" lon="5.88828">
        <ele>946</ele>
        <time>2015-03-29T08:55:56Z</time>
      </trkpt>
      <trkpt lat="45.3087" lon="5.88814">
        <ele>947</ele>
        <time>2015-03-29T08:56:00Z</time>
      </trkpt>
      <trkpt lat="45.30864" lon="5.88801">
        <ele>949</ele>
        <time>2015-03-29T08:56:04Z</time>
      </trkpt>
      <trkpt lat="45.30863" lon="5.88785">
        <ele>950.8</ele>
        <time>2015-03-29T08:56:08Z</time>
      </trkpt>
      <trkpt lat="45.30864" lon="5.88767">
        <ele>953</ele>
        <time>2015-03-29T08:56:12Z</time>
      </trkpt>
      <trkpt lat="45.30866" lon="5.88751">
        <ele>956.2</ele>
        <time>2015-03-29T08:56:16Z</time>
      </trkpt>
      <trkpt lat="45.30856" lon="5.88743">
        <ele>957.8</ele>
        <time>2015-03-29T08:56:21Z</time>
      </trkpt>
      <trkpt lat="45.30849" lon="5.88735">
        <ele>957.8</ele>
        <time>2015-03-29T08:56:24Z</time>
      </trkpt>
      <trkpt lat="45.30845" lon="5.88721">
        <ele>957.8</ele>
        <time>2015-03-29T08:56:27Z</time>
      </trkpt>
      <trkpt lat="45.30844" lon="5.88708">
        <ele>957.8</ele>
        <time>2015-03-29T08:56:30Z</time>
      </trkpt>
      <trkpt lat="45.30841" lon="5.88719">
        <ele>957.8</ele>
        <time>2015-03-29T08:56:35Z</time>
      </trkpt>
      <trkpt lat="45.30837" lon="5.88734">
        <ele>956.8</ele>
        <time>2015-03-29T08:56:38Z</time>
      </trkpt>
      <trkpt lat="45.30827" lon="5.88736">
        <ele>955.2</ele>
        <time>2015-03-29T08:56:41Z</time>
      </trkpt>
      <trkpt lat="45.30817" lon="5.8873">
        <ele>954.8</ele>
        <time>2015-03-29T08:56:44Z</time>
      </trkpt>
      <trkpt lat="45.30809" lon="5.88721">
        <ele>954.8</ele>
        <time>2015-03-29T08:56:49Z</time>
      </trkpt>
    </trkseg>
  </trk>
</gpx>